Aline, Pennsylvania
Current Conditions -  °F | °C
As of 7:53 AM on Wednesday 22 Oct 2014 (Local Time) from KSEG Reporting Station
Overcast Overcast  
Wind Chill: 54°   Ceiling: 1900
Heat Index: 54°   Visibility: 10mi
Dew Point: 47°   Wind: 13mph
Humidity: 77%   Direction: 340°NNW
Pressure: 29.99"   Gusts: NA
Location:  40.6989°N, 77.0073°W
Report Text: KSEG 221153Z AUTO 34011KT 10SM BKN019 OVC039 12/08 A2999 RMK AO2 SLP155 T01220083 10122 20117 53013
Loading
Personal Weather Stations






























Interactive Weather Map
Tropical Storm Tracking
New forecast layout! Learn more

10-Day Weather Forecast

Advertisements
Track Severe Weather on mobile